createdAt,value
2023-05-19T00:01:20.475Z,101465.07
2023-05-19T00:04:24.682Z,101463.04
2023-05-19T00:07:32.686Z,101457.38
2023-05-19T00:10:37.809Z,101462.27
2023-05-19T00:13:42.529Z,101456.11
2023-05-19T00:16:47.600Z,101457.48
2023-05-19T00:19:52.633Z,101457.39
2023-05-19T00:22:56.730Z,101455.95
2023-05-19T00:26:00.766Z,101453.38
2023-05-19T00:29:05.391Z,101449.41
2023-05-19T00:32:10.357Z,101450.44
2023-05-19T00:35:14.784Z,101449.94
2023-05-19T00:38:19.085Z,101448.80
2023-05-19T00:41:23.086Z,101452.85
2023-05-19T00:44:27.118Z,101450.02
2023-05-19T00:47:31.320Z,101446.34
2023-05-19T00:50:35.725Z,101449.09
2023-05-19T00:53:39.742Z,101448.64
2023-05-19T00:56:43.904Z,101443.34
2023-05-19T00:59:50.985Z,101441.17
2023-05-19T01:02:56.192Z,101442.18
2023-05-19T01:06:05.383Z,101440.91
2023-05-19T01:09:09.672Z,101439.70
2023-05-19T01:12:13.818Z,101436.27
2023-05-19T01:15:18.012Z,101439.95
2023-05-19T01:18:32.562Z,101435.89
2023-05-19T01:22:02.378Z,101436.83
2023-05-19T01:25:13.193Z,101435.03
2023-05-19T01:29:06.161Z,101430.45
2023-05-19T01:32:12.147Z,101428.73
2023-05-19T01:35:17.111Z,101429.86
2023-05-19T01:38:22.874Z,101428.66
2023-05-19T01:41:28.697Z,101426.98
2023-05-19T01:44:34.192Z,101424.92
2023-05-19T01:47:43.281Z,101421.92
2023-05-19T01:50:47.704Z,101425.23
2023-05-19T01:53:52.744Z,101422.66
2023-05-19T01:57:30.000Z,101416.22
2023-05-19T02:01:28.850Z,101415.64
2023-05-19T02:04:59.964Z,101413.54
2023-05-19T02:08:17.086Z,101417.36
2023-05-19T02:11:44.426Z,101415.84
2023-05-19T02:15:01.053Z,101419.67
2023-05-19T02:18:06.320Z,101418.79
2023-05-19T02:21:13.410Z,101418.59
2023-05-19T02:24:17.795Z,101420.70
2023-05-19T02:27:21.842Z,101417.52
2023-05-19T02:30:26.027Z,101420.94
2023-05-19T02:33:30.483Z,101421.59
2023-05-19T02:36:36.764Z,101418.77
2023-05-19T02:39:42.005Z,101416.79
2023-05-19T02:42:46.205Z,101417.83
2023-05-19T02:45:50.525Z,101415.74
2023-05-19T02:48:54.595Z,101416.17
2023-05-19T02:51:58.695Z,101416.45
2023-05-19T02:55:02.761Z,101414.80
2023-05-19T02:58:06.827Z,101415.18
2023-05-19T03:01:11.213Z,101416.66
2023-05-19T03:04:15.252Z,101420.77
2023-05-19T03:07:25.008Z,101418.61
2023-05-19T03:10:30.702Z,101421.98
2023-05-19T03:13:35.187Z,101424.81
2023-05-19T03:16:41.346Z,101424.86
2023-05-19T03:19:45.782Z,101425.34
2023-05-19T03:22:50.606Z,101424.98
2023-05-19T03:25:56.074Z,101428.38
2023-05-19T03:29:01.064Z,101427.33
2023-05-19T03:32:07.061Z,101426.11
2023-05-19T03:35:11.063Z,101427.34
2023-05-19T03:38:15.197Z,101426.64
2023-05-19T03:41:25.566Z,101425.59
2023-05-19T03:44:29.574Z,101424.62
2023-05-19T03:47:33.611Z,101423.52
2023-05-19T03:50:56.224Z,101422.23
2023-05-19T03:54:04.590Z,101427.23
2023-05-19T03:57:11.322Z,101424.11
2023-05-19T04:00:16.731Z,101423.61
2023-05-19T04:03:21.225Z,101422.94
2023-05-19T04:06:25.400Z,101424.35
2023-05-19T04:09:36.208Z,101426.96
2023-05-19T04:12:40.748Z,101425.09
2023-05-19T04:15:44.844Z,101424.73
2023-05-19T04:18:48.955Z,101426.77
2023-05-19T04:21:53.103Z,101429.51
2023-05-19T04:24:58.406Z,101427.10
2023-05-19T04:28:03.203Z,101425.71
2023-05-19T04:31:11.004Z,101425.00
2023-05-19T04:34:15.601Z,101424.02
2023-05-19T04:37:20.619Z,101420.71
2023-05-19T04:40:24.906Z,101421.11
2023-05-19T04:43:29.266Z,101425.05
2023-05-19T04:46:33.937Z,101422.73
2023-05-19T04:49:41.051Z,101421.30
2023-05-19T04:52:48.073Z,101424.56
2023-05-19T04:55:52.505Z,101421.41
2023-05-19T04:58:56.581Z,101423.56
2023-05-19T05:02:01.553Z,101422.64
2023-05-19T05:05:07.982Z,101425.50
2023-05-19T05:08:12.189Z,101425.75
2023-05-19T05:11:19.249Z,101428.59
2023-05-19T05:14:24.710Z,101429.91
2023-05-19T05:17:29.402Z,101427.95
2023-05-19T05:20:34.445Z,101427.15
2023-05-19T05:23:39.891Z,101431.02
2023-05-19T05:26:44.333Z,101426.77
2023-05-19T05:29:49.460Z,101423.94
2023-05-19T05:32:56.008Z,101422.89
2023-05-19T05:36:11.445Z,101422.53
2023-05-19T05:39:15.556Z,101422.38
2023-05-19T05:42:20.410Z,101418.59
2023-05-19T05:45:26.290Z,101420.64
2023-05-19T05:48:31.175Z,101417.94
2023-05-19T05:51:35.899Z,101416.65
2023-05-19T05:54:40.701Z,101416.69
2023-05-19T05:57:44.952Z,101420.20
2023-05-19T06:00:49.492Z,101417.73
2023-05-19T06:03:54.166Z,101422.00
2023-05-19T06:07:01.820Z,101420.50
2023-05-19T06:10:10.300Z,101425.12
2023-05-19T06:13:18.094Z,101423.31
2023-05-19T06:16:23.542Z,101425.13
2023-05-19T06:19:30.804Z,101423.63
2023-05-19T06:22:35.979Z,101424.64
2023-05-19T06:25:40.330Z,101421.77
2023-05-19T06:28:44.452Z,101422.16
2023-05-19T06:31:49.201Z,101424.42
2023-05-19T06:34:54.884Z,101422.70
2023-05-19T06:37:59.308Z,101422.86
2023-05-19T06:41:03.498Z,101427.56
2023-05-19T06:44:09.034Z,101427.11
2023-05-19T06:47:13.253Z,101426.30
2023-05-19T06:50:17.702Z,101430.30
2023-05-19T06:53:23.564Z,101429.83
2023-05-19T06:56:28.875Z,101427.97
2023-05-19T06:59:33.444Z,101424.84
2023-05-19T07:02:37.721Z,101427.10
2023-05-19T07:05:42.110Z,101425.95
2023-05-19T07:08:46.444Z,101422.10
2023-05-19T07:11:51.072Z,101419.17
2023-05-19T07:14:55.126Z,101416.79
2023-05-19T07:18:00.646Z,101418.27
2023-05-19T07:21:04.865Z,101417.73
2023-05-19T07:24:08.958Z,101416.38
2023-05-19T07:27:13.020Z,101415.58
2023-05-19T07:30:17.163Z,101419.05
2023-05-19T07:33:21.208Z,101422.17
2023-05-19T07:36:25.776Z,101424.92
2023-05-19T07:39:32.401Z,101417.85
2023-05-19T07:42:36.522Z,101419.51
2023-05-19T07:45:40.803Z,101420.16
2023-05-19T07:48:44.925Z,101421.28
2023-05-19T07:51:49.086Z,101420.89
2023-05-19T07:54:53.367Z,101422.47
2023-05-19T07:57:57.425Z,101422.90
2023-05-19T08:01:01.708Z,101419.45
2023-05-19T08:04:06.346Z,101417.27
2023-05-19T08:07:10.501Z,101418.85
2023-05-19T08:10:14.616Z,101421.63
2023-05-19T08:13:18.718Z,101418.00
2023-05-19T08:16:23.125Z,101414.63
2023-05-19T08:19:27.452Z,101414.27
2023-05-19T08:22:32.098Z,101411.54
2023-05-19T08:25:36.359Z,101419.64
2023-05-19T08:28:40.591Z,101418.59
2023-05-19T08:31:44.641Z,101418.26
2023-05-19T08:34:48.904Z,101422.83
2023-05-19T08:37:52.980Z,101424.65
2023-05-19T08:40:58.199Z,101423.58
2023-05-19T08:44:02.289Z,101425.48
2023-05-19T08:47:12.678Z,101420.11
2023-05-19T08:50:21.427Z,101422.59
2023-05-19T08:56:55.745Z,101425.39
2023-05-19T09:00:01.230Z,101426.56
2023-05-19T09:03:17.649Z,101423.80
2023-05-19T09:06:27.527Z,101430.65
2023-05-19T09:09:32.053Z,101432.20
2023-05-19T09:12:36.106Z,101429.92
2023-05-19T09:15:44.708Z,101429.48
2023-05-19T09:18:59.001Z,101424.15
2023-05-19T09:22:03.648Z,101426.55
2023-05-19T09:25:19.291Z,101427.07
2023-05-19T09:28:28.195Z,101422.78
2023-05-19T09:31:33.294Z,101419.17
2023-05-19T09:34:41.766Z,101418.73
2023-05-19T09:37:46.414Z,101420.02
2023-05-19T09:40:51.667Z,101419.26
2023-05-19T09:44:00.135Z,101421.75
2023-05-19T09:47:04.602Z,101420.11
2023-05-19T09:50:10.688Z,101418.00
2023-05-19T09:53:15.328Z,101420.09
2023-05-19T09:56:23.861Z,101422.94
2023-05-19T09:59:32.537Z,101421.42
2023-05-19T10:02:41.678Z,101420.67
2023-05-19T10:05:47.756Z,101421.17
2023-05-19T10:08:52.875Z,101419.84
2023-05-19T10:11:58.351Z,101420.86
2023-05-19T10:15:03.092Z,101419.45
2023-05-19T10:18:09.768Z,101419.51
2023-05-19T10:21:14.564Z,101417.49
2023-05-19T10:24:19.794Z,101413.48
2023-05-19T10:27:27.313Z,101413.89
2023-05-19T10:30:36.565Z,101410.31
2023-05-19T10:34:09.373Z,101410.56
2023-05-19T10:37:19.127Z,101407.36
2023-05-19T10:40:37.108Z,101402.52
2023-05-19T10:43:41.338Z,101400.59
2023-05-19T10:46:46.120Z,101402.23
2023-05-19T10:49:52.762Z,101400.15
2023-05-19T10:52:56.866Z,101398.98
2023-05-19T10:56:04.395Z,101394.85
2023-05-19T10:59:35.516Z,101401.16
2023-05-19T11:02:42.084Z,101401.20
2023-05-19T11:05:51.263Z,101399.86
2023-05-19T11:09:01.541Z,101398.95
2023-05-19T11:12:07.174Z,101399.23
2023-05-19T11:15:13.921Z,101401.70
2023-05-19T11:18:19.717Z,101401.70
2023-05-19T11:21:23.863Z,101393.39
2023-05-19T11:24:50.789Z,101399.27
2023-05-19T11:27:55.456Z,101400.40
2023-05-19T11:31:02.382Z,101403.59
2023-05-19T11:34:07.436Z,101403.70
2023-05-19T11:37:12.295Z,101408.30
2023-05-19T11:40:17.405Z,101403.05
2023-05-19T11:43:25.882Z,101401.11
2023-05-19T11:46:32.175Z,101400.99
2023-05-19T11:49:36.410Z,101397.61
2023-05-19T11:52:45.072Z,101397.73
2023-05-19T11:55:49.612Z,101401.39
2023-05-19T11:58:54.806Z,101398.64
2023-05-19T12:02:03.248Z,101398.75
2023-05-19T12:05:18.127Z,101402.31
2023-05-19T12:08:23.066Z,101404.77
2023-05-19T12:11:29.107Z,101409.89
2023-05-19T12:14:34.633Z,101408.20
2023-05-19T12:17:39.117Z,101406.71
2023-05-19T12:20:43.580Z,101410.05
2023-05-19T12:23:47.864Z,101409.55
2023-05-19T12:26:52.209Z,101407.11
2023-05-19T12:30:00.144Z,101404.59
2023-05-19T12:33:04.654Z,101403.85
2023-05-19T12:36:10.114Z,101404.73
2023-05-19T12:39:14.664Z,101402.01
2023-05-19T12:42:18.716Z,101405.36
2023-05-19T12:45:23.511Z,101399.20
2023-05-19T12:48:28.710Z,101399.01
2023-05-19T12:51:32.785Z,101394.20
2023-05-19T12:54:37.022Z,101395.98
2023-05-19T12:57:42.220Z,101393.74
2023-05-19T13:00:48.663Z,101392.61
2023-05-19T13:03:52.946Z,101390.60
2023-05-19T13:06:57.366Z,101395.50
2023-05-19T13:10:01.539Z,101393.15
2023-05-19T13:13:06.812Z,101388.05
2023-05-19T13:16:10.840Z,101390.44
2023-05-19T13:19:25.444Z,101391.46
2023-05-19T13:22:30.321Z,101395.16
2023-05-19T13:25:34.846Z,101397.41
2023-05-19T13:28:38.879Z,101401.34
2023-05-19T13:31:42.926Z,101400.66
2023-05-19T13:34:47.052Z,101398.12
2023-05-19T13:37:51.161Z,101399.29
2023-05-19T13:40:55.153Z,101394.09
2023-05-19T13:43:59.706Z,101390.77
2023-05-19T13:47:03.912Z,101391.10
2023-05-19T13:50:08.215Z,101388.52
2023-05-19T13:53:12.219Z,101385.76
2023-05-19T13:56:16.332Z,101387.90
2023-05-19T13:59:23.325Z,101387.00
2023-05-19T14:02:27.507Z,101386.18
2023-05-19T14:05:31.659Z,101388.69
2023-05-19T14:08:36.526Z,101390.52
2023-05-19T14:11:40.614Z,101389.09
2023-05-19T14:14:44.837Z,101395.50
2023-05-19T14:17:49.222Z,101395.32
2023-05-19T14:20:53.292Z,101395.34
2023-05-19T14:23:57.928Z,101389.06
2023-05-19T14:27:02.230Z,101388.80
2023-05-19T14:30:06.754Z,101394.17
2023-05-19T14:33:11.414Z,101393.08
2023-05-19T14:36:15.644Z,101394.38
2023-05-19T14:39:19.627Z,101392.08
2023-05-19T14:42:23.726Z,101391.45
2023-05-19T14:45:27.866Z,101390.36
2023-05-19T14:48:32.280Z,101392.42
2023-05-19T14:51:36.489Z,101391.94
2023-05-19T14:54:40.445Z,101393.66
2023-05-19T14:57:44.482Z,101393.63
2023-05-19T15:00:48.466Z,101397.15
2023-05-19T15:03:52.727Z,101396.94
2023-05-19T15:10:10.240Z,101401.31
2023-05-19T15:13:14.255Z,101407.48
2023-05-19T15:16:18.532Z,101408.46
2023-05-19T15:19:22.769Z,101401.95
2023-05-19T15:22:26.941Z,101409.22
2023-05-19T15:25:30.910Z,101412.21
2023-05-19T15:28:34.902Z,101409.04
2023-05-19T15:31:38.935Z,101404.02
2023-05-19T15:34:43.085Z,101399.14
2023-05-19T15:37:47.029Z,101401.96
2023-05-19T15:40:51.232Z,101400.39
2023-05-19T15:43:55.197Z,101394.52
2023-05-19T15:46:59.242Z,101395.41
2023-05-19T15:50:03.471Z,101398.13
2023-05-19T15:53:08.349Z,101395.09
2023-05-19T15:56:13.666Z,101395.95
2023-05-19T15:59:17.691Z,101395.19
2023-05-19T16:02:21.750Z,101393.74
2023-05-19T16:05:25.939Z,101392.50
2023-05-19T16:08:30.048Z,101391.77
2023-05-19T16:11:34.095Z,101387.71
2023-05-19T16:14:38.062Z,101389.60
2023-05-19T16:17:42.057Z,101387.65
2023-05-19T16:20:46.402Z,101386.67
2023-05-19T16:23:50.421Z,101383.79
2023-05-19T16:26:54.620Z,101384.50
2023-05-19T16:30:01.105Z,101388.45
2023-05-19T16:33:05.476Z,101388.84
2023-05-19T16:36:09.663Z,101390.66
2023-05-19T16:39:13.802Z,101388.06
2023-05-19T16:42:17.892Z,101386.38
2023-05-19T16:45:22.037Z,101388.90
2023-05-19T16:48:26.021Z,101389.69
2023-05-19T16:51:30.060Z,101388.30
2023-05-19T16:54:34.685Z,101383.07
2023-05-19T16:57:38.676Z,101382.34
2023-05-19T17:00:42.718Z,101381.67
2023-05-19T17:03:46.767Z,101383.27
2023-05-19T17:06:51.084Z,101385.17
2023-05-19T17:09:56.057Z,101382.11
2023-05-19T17:13:00.174Z,101380.58
2023-05-19T17:16:04.464Z,101382.20
2023-05-19T17:19:08.441Z,101384.07
2023-05-19T17:22:12.738Z,101380.89
2023-05-19T17:25:17.025Z,101382.25
2023-05-19T17:28:21.195Z,101379.96
2023-05-19T17:31:25.170Z,101379.98
2023-05-19T17:34:30.254Z,101375.77
2023-05-19T17:37:34.388Z,101378.79
2023-05-19T17:40:40.077Z,101378.27
2023-05-19T17:43:45.970Z,101378.61
2023-05-19T17:46:50.120Z,101380.41
2023-05-19T17:49:54.176Z,101382.45
2023-05-19T17:52:58.840Z,101386.33
2023-05-19T17:56:06.621Z,101391.29
2023-05-19T17:59:11.398Z,101389.58
2023-05-19T18:02:16.062Z,101394.60
2023-05-19T18:05:21.037Z,101394.46
2023-05-19T18:08:26.017Z,101389.77
2023-05-19T18:11:30.024Z,101386.44
2023-05-19T18:14:34.062Z,101385.10
2023-05-19T18:17:38.111Z,101384.05
2023-05-19T18:20:44.853Z,101386.48
2023-05-19T18:23:48.832Z,101383.30
2023-05-19T18:26:52.866Z,101386.79
2023-05-19T18:29:56.983Z,101387.98
2023-05-19T18:33:03.908Z,101394.48
2023-05-19T18:36:08.486Z,101399.63
2023-05-19T18:39:12.472Z,101403.68
2023-05-19T18:42:16.713Z,101405.13
2023-05-19T18:45:20.889Z,101410.59
2023-05-19T18:48:25.786Z,101413.41
2023-05-19T18:51:30.007Z,101414.93
2023-05-19T18:54:34.084Z,101418.73
2023-05-19T18:57:38.243Z,101421.15
2023-05-19T19:00:42.259Z,101422.60
2023-05-19T19:03:49.500Z,101421.72
2023-05-19T19:06:53.589Z,101426.61
2023-05-19T19:09:57.585Z,101429.26
2023-05-19T19:13:01.563Z,101430.39
2023-05-19T19:16:06.377Z,101431.98
2023-05-19T19:19:10.428Z,101429.62
2023-05-19T19:22:14.521Z,101430.06
2023-05-19T19:25:18.513Z,101434.37
2023-05-19T19:28:23.199Z,101430.64
2023-05-19T19:31:28.822Z,101435.25
2023-05-19T19:34:33.941Z,101433.52
2023-05-19T19:37:38.028Z,101432.35
2023-05-19T19:40:42.215Z,101432.48
2023-05-19T19:43:46.254Z,101433.35
2023-05-19T19:46:51.046Z,101440.52
2023-05-19T19:49:56.067Z,101440.15
2023-05-19T19:53:00.799Z,101439.28
2023-05-19T19:56:06.199Z,101441.73
2023-05-19T19:59:10.756Z,101442.39
2023-05-19T20:02:14.823Z,101440.86
2023-05-19T20:05:19.041Z,101441.55
2023-05-19T20:08:24.489Z,101440.72
2023-05-19T20:11:30.304Z,101443.73
2023-05-19T20:14:34.305Z,101443.52
2023-05-19T20:17:38.586Z,101441.91
2023-05-19T20:20:42.881Z,101443.05
2023-05-19T20:23:46.945Z,101445.26
2023-05-19T20:26:51.195Z,101444.55
2023-05-19T20:29:55.186Z,101445.53
2023-05-19T20:32:59.234Z,101448.94
2023-05-19T20:36:04.853Z,101446.40
2023-05-19T20:39:11.977Z,101445.89
2023-05-19T20:42:16.100Z,101452.42
2023-05-19T20:45:20.524Z,101455.44
2023-05-19T20:48:24.699Z,101458.67
2023-05-19T20:51:28.869Z,101455.88
2023-05-19T20:54:32.942Z,101457.02
2023-05-19T20:57:37.061Z,101462.13
2023-05-19T21:00:41.404Z,101460.48
2023-05-19T21:03:45.410Z,101456.70
2023-05-19T21:06:49.651Z,101458.19
2023-05-19T21:09:54.579Z,101457.27
2023-05-19T21:12:58.958Z,101458.04
2023-05-19T21:16:03.039Z,101459.52
2023-05-19T21:19:07.055Z,101454.13
2023-05-19T21:22:11.368Z,101455.05
2023-05-19T21:25:17.061Z,101453.37
2023-05-19T21:28:21.458Z,101453.80
2023-05-19T21:31:25.520Z,101452.52
2023-05-19T21:34:29.666Z,101450.43
2023-05-19T21:37:33.694Z,101446.45
2023-05-19T21:40:37.939Z,101452.67
2023-05-19T21:43:42.211Z,101453.21
2023-05-19T21:46:46.323Z,101452.44
2023-05-19T21:49:50.425Z,101453.85
2023-05-19T21:52:54.418Z,101453.88
2023-05-19T21:55:59.193Z,101455.92
2023-05-19T21:59:03.411Z,101445.64
2023-05-19T22:02:07.649Z,101447.25
2023-05-19T22:05:12.121Z,101449.52
2023-05-19T22:08:19.685Z,101444.92
2023-05-19T22:11:23.812Z,101447.73
2023-05-19T22:14:28.009Z,101442.65
2023-05-19T22:17:32.208Z,101445.44
2023-05-19T22:20:37.786Z,101443.66
2023-05-19T22:23:41.794Z,101441.77
2023-05-19T22:26:47.079Z,101447.11
2023-05-19T22:29:51.173Z,101448.23
2023-05-19T22:32:55.263Z,101452.36
2023-05-19T22:35:59.361Z,101448.40
2023-05-19T22:39:03.409Z,101446.02
2023-05-19T22:42:07.479Z,101444.02
2023-05-19T22:45:11.626Z,101443.33
2023-05-19T22:48:16.412Z,101442.20
2023-05-19T22:51:21.332Z,101443.73
2023-05-19T22:54:25.327Z,101445.48
2023-05-19T22:57:29.880Z,101443.55
2023-05-19T23:00:33.895Z,101448.50
2023-05-19T23:03:37.895Z,101447.19
2023-05-19T23:06:42.059Z,101446.57
2023-05-19T23:09:46.037Z,101443.63
2023-05-19T23:12:51.564Z,101436.19
2023-05-19T23:15:55.503Z,101443.43
2023-05-19T23:18:59.559Z,101438.56
2023-05-19T23:22:03.624Z,101440.64
2023-05-19T23:25:08.217Z,101442.41
2023-05-19T23:28:12.343Z,101441.83
2023-05-19T23:31:16.443Z,101442.36
2023-05-19T23:34:20.639Z,101440.25
2023-05-19T23:37:24.656Z,101431.26
2023-05-19T23:40:28.712Z,101432.23
2023-05-19T23:43:32.826Z,101430.80
2023-05-19T23:46:36.880Z,101435.27
2023-05-19T23:49:41.096Z,101432.73
2023-05-19T23:52:45.197Z,101435.33
2023-05-19T23:55:49.375Z,101431.94
2023-05-19T23:58:53.453Z,101429.91
